Wetterdaten: Juni 2009
Datum Temp. A. Feuchte A. Luftdruck Regen Wind Richtung Taupunkt Windchill Windben
01.06.2009 17,4 C 60 % 1016 hPa 0,0 l/m 8,9 km/h N-NO 9,1 C 16,2 C 11,8 km/h
02.06.2009 19,0 C 57 % 1013 hPa 0,0 l/m 4,9 km/h N 9,7 C 18,3 C 7,8 km/h
03.06.2009 15,2 C 47 % 1012 hPa 0,0 l/m 16,5 km/h W-NW 3,6 C 11,1 C 19,4 km/h
04.06.2009 12,4 C 55 % 1012 hPa 0,0 l/m 4,2 km/h W-NW 3,5 C 11,4 C 7,1 km/h
05.06.2009 13,8 C 56 % 1007 hPa 0,0 l/m 7,5 km/h W-NW 5,0 C 12,4 C 10,4 km/h
06.06.2009 13,4 C 85 % 999 hPa 5,7 l/m 6,2 km/h NO 10,9 C 12,6 C 9,1 km/h
07.06.2009 15,0 C 79 % 1005 hPa 11,4 l/m 7,8 km/h W-NW 11,1 C 13,3 C 10,7 km/h
08.06.2009 16,5 C 75 % 1009 hPa 3,1 l/m 9,8 km/h N-NO 11,6 C 14,9 C 12,7 km/h
09.06.2009 16,9 C 78 % 1011 hPa 1,6 l/m 13,7 km/h W-NW 13,0 C 14,1 C 16,6 km/h
10.06.2009 17,7 C 65 % 1014 hPa 0,0 l/m 2,3 km/h W-NW 10,4 C 17,5 C 5,2 km/h
11.06.2009 16,4 C 66 % 1014 hPa 6,2 l/m 20,1 km/h W-NW 9,7 C 12,6 C 31,2 km/h
12.06.2009 15,2 C 65 % 1018 hPa 3,1 l/m 10,7 km/h W-NW 8,2 C 12,3 C 19,1 km/h
13.06.2009 17,4 C 59 % 1019 hPa 0,0 l/m 0,0 km/h NW 8,6 C 17,4 C 2,9 km/h
14.06.2009 21,4 C 58 % 1017 hPa 0,0 l/m 3,5 km/h W-NW 12,0 C 21,2 C 6,4 km/h
15.06.2009 21,5 C 75 % 1012 hPa 0,5 l/m 7,1 km/h W-NW 16,5 C 20,9 C 14,3 km/h
16.06.2009 16,2 C 72 % 1021 hPa 5,7 l/m 6,1 km/h W-NW 11,0 C 14,9 C 9,1 km/h
17.06.2009 18,4 C 65 % 1020 hPa 0,0 l/m 8,8 km/h O 11,1 C 17,2 C 11,7 km/h
18.06.2009 22,8 C 59 % 1016 hPa 0,0 l/m 9,4 km/h W-NW 13,9 C 21,9 C 12,4 km/h
19.06.2009 17,2 C 78 % 1016 hPa 0,5 l/m 17,5 km/h W-NW 13,3 C 13,3 C 20,4 km/h
20.06.2009 16,7 C 56 % 1018 hPa 0,0 l/m 9,1 km/h W-NW 7,4 C 15,1 C 12,0 km/h
21.06.2009 15,0 C 63 % 1017 hPa 0,0 l/m 0,0 km/h W-NW 7,8 C 15,0 C 2,9 km/h
22.06.2009 14,0 C 75 % 1019 hPa 5,7 l/m 14,3 km/h N-NO 9,5 C 10,3 C 17,1 km/h
23.06.2009 13,5 C 85 % 1018 hPa 3,6 l/m 6,5 km/h N-NO 11,1 C 12,6 C 9,4 km/h
24.06.2009 16,6 C 78 % 1014 hPa 0,0 l/m 4,6 km/h N-NO 12,8 C 15,9 C 7,4 km/h
25.06.2009 18,6 C 80 % 1009 hPa 0,0 l/m 11,0 km/h N-NO 15,0 C 16,8 C 16,6 km/h
26.06.2009 20,3 C 77 % 1009 hPa 0,0 l/m 0,0 km/h NO 16,1 C 20,3 C 2,9 km/h
27.06.2009 18,5 C 90 % 1011 hPa 13,5 l/m 2,0 km/h N-NO 16,9 C 18,4 C 4,8 km/h
28.06.2009 18,6 C 90 % 1012 hPa 0,0 l/m 0,0 km/h N-NO 16,8 C 18,6 C 2,9 km/h
29.06.2009 18,6 C 90 % 1012 hPa 0,0 l/m 0,0 km/h N-NO 16,8 C 18,6 C 2,9 km/h
30.06.2009 23,1 C 67 % 1017 hPa 0,0 l/m 10,0 km/h O 16,1 C 22,2 C 12,9 km/h
Min-Datum 13.06.09 03.06.09 06.06.09 12 Tage 01.06.09 - 03.06.09 06.06.09 01.06.09
Min-Zeit 05:30 12:00 17:10 - 00:00 - 12:00 06:15 00:00
Minimum 7,8 C 27 % 997 hPa - 0,0 km/h - -0,6 C 0,8 C 2,9 km/h
Max-Datum 30.06.09 28.06.09 16.06.09 27.06.09 15.06.09 - 28.06.09 30.06.09 11.06.09
Max-Zeit 16:15 05:40 22:10 13:25 17:25 - 18:00 16:20 15:00
Maximum 29,6 C 94 % 1024 hPa 13,5 l/m 70,1 km/h
W-NW
- 20,8 C 29,5 C 132,9 km/h
W-NW
Durchschnitt 17,2 C 70 % 1014 hPa #60,6 l/m 7,4 km/h W-NW 11,3 C 15,9 C 11,0 km/h

Durchschnitt Minimum Temp.12,0 C
Durchschnitt Maximum Temp.22,2 C